createdAt,value
2017-09-09T00:02:01.995Z,11.52
2017-09-09T00:04:28.257Z,11.35
2017-09-09T00:06:54.537Z,16.17
2017-09-09T00:09:20.792Z,11.38
2017-09-09T00:11:47.087Z,11.93
2017-09-09T00:14:13.371Z,14.18
2017-09-09T00:16:39.644Z,11.50
2017-09-09T00:19:05.930Z,11.68
2017-09-09T00:21:32.578Z,13.52
2017-09-09T00:23:59.225Z,12.15
2017-09-09T00:26:25.494Z,11.38
2017-09-09T00:28:51.764Z,11.90
2017-09-09T00:31:18.048Z,12.07
2017-09-09T00:33:44.346Z,10.25
2017-09-09T00:36:10.597Z,11.18
2017-09-09T00:38:36.881Z,12.10
2017-09-09T00:41:03.522Z,15.20
2017-09-09T00:43:29.846Z,10.88
2017-09-09T00:45:56.166Z,11.52
2017-09-09T00:48:22.461Z,13.00
2017-09-09T00:50:48.773Z,12.50
2017-09-09T00:53:15.073Z,13.50
2017-09-09T00:55:41.368Z,11.05
2017-09-09T00:58:07.661Z,11.75
2017-09-09T01:00:33.987Z,14.38
2017-09-09T01:03:00.273Z,12.37
2017-09-09T01:05:26.568Z,14.32
2017-09-09T01:07:52.883Z,11.95
2017-09-09T01:10:19.145Z,12.80
2017-09-09T01:12:45.514Z,13.38
2017-09-09T01:15:11.810Z,12.48
2017-09-09T01:17:38.078Z,12.77
2017-09-09T01:20:04.396Z,14.45
2017-09-09T01:22:30.701Z,12.20
2017-09-09T01:24:57.025Z,13.05
2017-09-09T01:27:23.320Z,12.43
2017-09-09T01:29:49.617Z,11.40
2017-09-09T01:32:16.260Z,10.68
2017-09-09T01:34:42.542Z,11.52
2017-09-09T01:37:08.809Z,11.18
2017-09-09T01:39:35.093Z,12.02
2017-09-09T01:42:01.373Z,12.85
2017-09-09T01:44:27.633Z,11.27
2017-09-09T01:46:53.929Z,11.57
2017-09-09T01:49:20.252Z,13.18
2017-09-09T01:51:46.541Z,13.93
2017-09-09T01:54:12.810Z,11.63
2017-09-09T01:56:39.097Z,12.57
2017-09-09T01:59:05.362Z,13.02
2017-09-09T02:01:32.312Z,12.88
2017-09-09T02:03:58.596Z,12.10
2017-09-09T02:06:24.885Z,15.13
2017-09-09T02:08:51.154Z,12.40
2017-09-09T02:11:17.428Z,13.10
2017-09-09T02:13:43.716Z,11.93
2017-09-09T02:16:09.981Z,11.45
2017-09-09T02:18:36.241Z,10.65
2017-09-09T02:21:02.522Z,9.77
2017-09-09T02:23:28.784Z,10.68
2017-09-09T02:25:55.073Z,9.70
2017-09-09T02:28:21.329Z,11.48
2017-09-09T02:30:47.639Z,10.38
2017-09-09T02:33:13.883Z,11.98
2017-09-09T02:35:40.177Z,10.85
2017-09-09T02:38:06.428Z,10.20
2017-09-09T02:40:33.261Z,15.65
2017-09-09T02:42:59.528Z,10.55
2017-09-09T02:45:25.813Z,13.00
2017-09-09T02:47:52.130Z,14.68
2017-09-09T02:50:18.393Z,12.50
2017-09-09T02:52:44.665Z,11.48
2017-09-09T02:55:10.942Z,10.70
2017-09-09T02:57:37.228Z,12.13
2017-09-09T03:00:03.488Z,11.30
2017-09-09T03:02:29.768Z,11.55
2017-09-09T03:04:56.041Z,10.60
2017-09-09T03:07:22.288Z,11.68
2017-09-09T03:09:48.557Z,11.98
2017-09-09T03:12:14.818Z,11.88
2017-09-09T03:14:41.092Z,10.23
2017-09-09T03:17:07.405Z,11.38
2017-09-09T03:19:33.683Z,12.27
2017-09-09T03:21:59.952Z,12.50
2017-09-09T03:24:26.489Z,10.27
2017-09-09T03:26:52.793Z,10.20
2017-09-09T03:29:19.049Z,11.63
2017-09-09T03:31:45.340Z,12.23
2017-09-09T03:34:11.600Z,10.20
2017-09-09T03:36:37.869Z,9.25
2017-09-09T03:39:04.140Z,9.70
2017-09-09T03:41:30.417Z,10.43
2017-09-09T03:43:56.672Z,9.75
2017-09-09T03:46:22.974Z,11.43
2017-09-09T03:48:49.630Z,10.93
2017-09-09T03:51:15.909Z,10.43
2017-09-09T03:53:42.181Z,10.25
2017-09-09T03:56:08.836Z,9.80
2017-09-09T03:58:35.133Z,10.07
2017-09-09T04:01:01.395Z,10.70
2017-09-09T04:03:27.689Z,10.25
2017-09-09T04:05:53.933Z,10.63
2017-09-09T04:08:20.573Z,10.65
2017-09-09T04:10:47.210Z,9.48
2017-09-09T04:13:13.480Z,9.00
2017-09-09T04:15:39.742Z,10.10
2017-09-09T04:18:06.012Z,10.73
2017-09-09T04:20:32.285Z,9.82
2017-09-09T04:22:58.557Z,9.55
2017-09-09T04:25:24.849Z,10.05
2017-09-09T04:27:51.104Z,14.35
2017-09-09T04:30:17.374Z,11.95
2017-09-09T04:32:43.633Z,10.00
2017-09-09T04:35:09.913Z,10.30
2017-09-09T04:37:36.189Z,10.23
2017-09-09T04:40:02.882Z,11.68
2017-09-09T04:42:29.149Z,9.88
2017-09-09T04:44:55.392Z,9.10
2017-09-09T04:47:21.677Z,9.68
2017-09-09T04:49:47.938Z,8.60
2017-09-09T04:52:14.245Z,11.55
2017-09-09T04:54:40.490Z,9.40
2017-09-09T04:57:06.780Z,10.00
2017-09-09T04:59:33.042Z,8.98
2017-09-09T05:01:59.330Z,10.23
2017-09-09T05:04:25.625Z,11.07
2017-09-09T05:06:51.873Z,9.80
2017-09-09T05:09:18.149Z,9.95
2017-09-09T05:11:44.434Z,9.73
2017-09-09T05:14:11.096Z,9.23
2017-09-09T05:16:37.377Z,10.38
2017-09-09T05:19:03.624Z,11.20
2017-09-09T05:21:29.896Z,10.45
2017-09-09T05:23:56.161Z,9.90
2017-09-09T05:26:22.449Z,9.70
2017-09-09T05:28:48.709Z,11.23
2017-09-09T05:31:15.018Z,15.05
2017-09-09T05:33:41.309Z,9.70
2017-09-09T05:36:08.010Z,9.98
2017-09-09T05:38:34.332Z,12.07
2017-09-09T05:41:00.609Z,12.20
2017-09-09T05:43:26.914Z,11.93
2017-09-09T05:45:53.166Z,11.00
2017-09-09T05:48:19.829Z,10.70
2017-09-09T05:50:46.131Z,12.40
2017-09-09T05:53:12.411Z,12.88
2017-09-09T05:55:38.690Z,12.35
2017-09-09T05:58:04.973Z,12.55
2017-09-09T06:00:31.229Z,13.20
2017-09-09T06:02:57.513Z,12.98
2017-09-09T06:05:23.780Z,13.35
2017-09-09T06:07:50.053Z,12.57
2017-09-09T06:10:16.325Z,13.10
2017-09-09T06:12:42.588Z,12.50
2017-09-09T06:15:08.872Z,13.88
2017-09-09T06:17:35.157Z,14.65
2017-09-09T06:20:01.461Z,17.65
2017-09-09T06:22:27.711Z,14.85
2017-09-09T06:24:54.000Z,14.32
2017-09-09T06:27:20.285Z,14.87
2017-09-09T06:29:46.572Z,14.50
2017-09-09T06:32:12.864Z,16.48
2017-09-09T06:34:39.145Z,14.10
2017-09-09T06:37:05.422Z,15.02
2017-09-09T06:39:32.364Z,14.18
2017-09-09T06:41:59.537Z,15.93
2017-09-09T06:44:25.840Z,16.15
2017-09-09T06:46:52.697Z,15.25
2017-09-09T06:49:18.981Z,15.43
2017-09-09T06:51:45.257Z,15.10
2017-09-09T06:54:11.561Z,16.50
2017-09-09T06:56:37.859Z,14.98
2017-09-09T06:59:04.156Z,13.40
2017-09-09T07:01:30.448Z,17.30
2017-09-09T07:03:56.752Z,13.90
2017-09-09T07:06:23.418Z,16.35
2017-09-09T07:08:49.704Z,15.73
2017-09-09T07:11:15.980Z,16.55
2017-09-09T07:13:42.245Z,15.30
2017-09-09T07:16:08.566Z,14.73
2017-09-09T07:18:34.852Z,14.05
2017-09-09T07:21:01.165Z,13.18
2017-09-09T07:23:27.432Z,13.75
2017-09-09T07:25:54.719Z,13.75
2017-09-09T07:28:20.990Z,15.82
2017-09-09T07:30:47.646Z,15.68
2017-09-09T07:33:13.947Z,16.87
2017-09-09T07:35:40.258Z,17.12
2017-09-09T07:38:06.553Z,17.75
2017-09-09T07:40:32.845Z,16.70
2017-09-09T07:42:59.121Z,18.37
2017-09-09T07:45:25.420Z,14.05
2017-09-09T07:47:51.696Z,16.80
2017-09-09T07:50:18.645Z,16.48
2017-09-09T07:52:44.934Z,15.55
2017-09-09T07:55:11.247Z,16.95
2017-09-09T07:57:37.565Z,15.98
2017-09-09T08:00:04.129Z,15.20
2017-09-09T08:02:30.410Z,21.40
2017-09-09T08:04:56.678Z,16.35
2017-09-09T08:07:22.971Z,18.37
2017-09-09T08:09:49.269Z,16.55
2017-09-09T08:12:15.549Z,17.77
2017-09-09T08:14:41.857Z,17.75
2017-09-09T08:17:08.136Z,17.87
2017-09-09T08:19:34.416Z,18.85
2017-09-09T08:22:00.692Z,17.95
2017-09-09T08:24:26.988Z,19.30
2017-09-09T08:26:53.271Z,20.05
2017-09-09T08:29:19.561Z,20.52
2017-09-09T08:31:45.861Z,19.80
2017-09-09T08:34:12.127Z,18.87
2017-09-09T08:36:38.441Z,17.58
2017-09-09T08:39:05.117Z,18.50
2017-09-09T08:41:31.408Z,17.92
2017-09-09T08:43:57.672Z,18.67
2017-09-09T08:46:24.006Z,17.75
2017-09-09T08:48:50.297Z,17.92
2017-09-09T08:51:17.329Z,17.73
2017-09-09T08:53:43.629Z,21.33
2017-09-09T08:56:09.926Z,17.65
2017-09-09T08:58:36.235Z,18.80
2017-09-09T09:01:02.519Z,19.42
2017-09-09T09:03:28.805Z,18.58
2017-09-09T09:05:55.076Z,17.98
2017-09-09T09:08:21.364Z,17.58
2017-09-09T09:10:47.669Z,17.12
2017-09-09T09:13:13.937Z,17.83
2017-09-09T09:15:40.253Z,19.17
2017-09-09T09:18:06.548Z,16.65
2017-09-09T09:20:32.838Z,17.17
2017-09-09T09:22:59.125Z,15.13
2017-09-09T09:25:25.448Z,16.02
2017-09-09T09:27:51.715Z,17.20
2017-09-09T09:30:18.058Z,18.65
2017-09-09T09:32:44.366Z,16.75
2017-09-09T09:35:10.671Z,21.48
2017-09-09T09:37:36.956Z,15.80
2017-09-09T09:40:03.216Z,16.10
2017-09-09T09:42:29.564Z,14.93
2017-09-09T09:44:56.212Z,14.45
2017-09-09T09:47:22.528Z,16.05
2017-09-09T09:49:48.814Z,14.68
2017-09-09T09:52:16.040Z,15.57
2017-09-09T09:54:42.328Z,14.20
2017-09-09T09:57:09.970Z,15.40
2017-09-09T09:59:36.288Z,16.00
2017-09-09T10:02:02.560Z,15.50
2017-09-09T10:04:28.867Z,16.05
2017-09-09T10:06:55.157Z,15.27
2017-09-09T10:09:21.468Z,16.60
2017-09-09T10:11:47.765Z,14.18
2017-09-09T10:14:14.442Z,14.73
2017-09-09T10:16:40.737Z,13.70
2017-09-09T10:19:07.028Z,14.40
2017-09-09T10:21:33.370Z,16.73
2017-09-09T10:24:05.576Z,16.12
2017-09-09T10:26:31.881Z,14.10
2017-09-09T10:28:58.192Z,14.35
2017-09-09T10:31:24.508Z,14.40
2017-09-09T10:33:50.810Z,15.07
2017-09-09T10:36:17.111Z,16.52
2017-09-09T10:38:43.737Z,16.20
2017-09-09T10:41:10.033Z,18.83
2017-09-09T10:43:36.355Z,15.98
2017-09-09T10:46:02.612Z,15.18
2017-09-09T10:48:28.916Z,15.70
2017-09-09T10:50:55.201Z,19.42
2017-09-09T10:53:21.490Z,15.30
2017-09-09T10:55:48.752Z,14.80
2017-09-09T10:58:15.445Z,17.55
2017-09-09T11:00:41.777Z,14.23
2017-09-09T11:03:08.397Z,15.02
2017-09-09T11:05:34.697Z,15.20
2017-09-09T11:08:00.996Z,15.00
2017-09-09T11:10:27.317Z,14.35
2017-09-09T11:12:53.586Z,18.10
2017-09-09T11:15:19.878Z,14.67
2017-09-09T11:17:46.171Z,16.40
2017-09-09T11:20:13.277Z,14.93
2017-09-09T11:22:39.857Z,14.18
2017-09-09T11:25:06.138Z,16.58
2017-09-09T11:27:32.466Z,16.30
2017-09-09T11:29:58.754Z,16.93
2017-09-09T11:32:25.067Z,13.13
2017-09-09T11:34:51.351Z,14.48
2017-09-09T11:37:17.664Z,14.53
2017-09-09T11:39:43.937Z,14.57
2017-09-09T11:42:10.258Z,15.32
2017-09-09T11:44:36.569Z,15.57
2017-09-09T11:47:02.864Z,14.40
2017-09-09T11:49:29.188Z,15.40
2017-09-09T11:51:55.488Z,15.38
2017-09-09T11:54:21.814Z,13.82
2017-09-09T11:56:48.089Z,15.93
2017-09-09T11:59:14.381Z,14.53
2017-09-09T12:01:40.659Z,14.17
2017-09-09T12:04:06.959Z,14.35
2017-09-09T12:06:33.237Z,14.75
2017-09-09T12:08:59.586Z,13.40
2017-09-09T12:11:25.849Z,13.57
2017-09-09T12:13:52.524Z,14.47
2017-09-09T12:16:18.804Z,14.63
2017-09-09T12:18:45.456Z,12.13
2017-09-09T12:21:11.774Z,11.93
2017-09-09T12:23:38.454Z,12.53
2017-09-09T12:26:04.754Z,11.65
2017-09-09T12:28:31.014Z,9.10
2017-09-09T12:30:57.341Z,9.13
2017-09-09T12:33:23.625Z,7.78
2017-09-09T12:35:51.542Z,7.30
2017-09-09T12:38:17.852Z,7.15
2017-09-09T12:40:44.114Z,6.80
2017-09-09T12:43:10.422Z,5.55
2017-09-09T12:45:36.750Z,5.35
2017-09-09T12:48:03.109Z,5.70
2017-09-09T12:50:29.387Z,5.60
2017-09-09T12:52:55.974Z,5.32
2017-09-09T12:55:22.261Z,8.23
2017-09-09T12:57:48.626Z,6.30
2017-09-09T13:00:15.005Z,5.22
2017-09-09T13:02:41.310Z,5.60
2017-09-09T13:05:07.607Z,7.80
2017-09-09T13:07:33.877Z,6.43
2017-09-09T13:10:00.563Z,5.47
2017-09-09T13:12:26.829Z,6.22
2017-09-09T13:14:53.120Z,4.85
2017-09-09T13:17:19.428Z,5.55
2017-09-09T13:19:45.727Z,5.37
2017-09-09T13:22:12.071Z,12.00
2017-09-09T13:24:38.744Z,10.57
2017-09-09T13:27:05.084Z,7.93
2017-09-09T13:29:31.359Z,9.18
2017-09-09T13:31:57.720Z,5.30
2017-09-09T13:34:24.012Z,4.30
2017-09-09T13:36:51.373Z,4.30
2017-09-09T13:39:17.688Z,4.90
2017-09-09T13:41:44.314Z,5.45
2017-09-09T13:44:10.622Z,5.87
2017-09-09T13:46:36.940Z,5.90
2017-09-09T13:49:03.244Z,5.57
2017-09-09T13:51:30.025Z,6.57
2017-09-09T13:53:56.341Z,6.77
2017-09-09T13:56:22.661Z,6.25
2017-09-09T13:58:49.343Z,6.68
2017-09-09T14:01:15.652Z,7.73
2017-09-09T14:03:41.965Z,8.55
2017-09-09T14:06:08.496Z,10.50
2017-09-09T14:08:34.817Z,6.30
2017-09-09T14:11:01.489Z,10.43
2017-09-09T14:13:27.831Z,4.65
2017-09-09T14:15:54.206Z,4.40
2017-09-09T14:18:20.510Z,4.75
2017-09-09T14:20:47.259Z,6.07
2017-09-09T14:23:13.778Z,13.73
2017-09-09T14:25:40.144Z,5.25
2017-09-09T14:28:06.464Z,7.62
2017-09-09T14:30:32.738Z,5.32
2017-09-09T14:32:59.072Z,8.38
2017-09-09T14:35:25.388Z,7.93
2017-09-09T14:37:51.705Z,6.82
2017-09-09T14:40:18.043Z,6.97
2017-09-09T14:42:44.739Z,6.70
2017-09-09T14:45:11.063Z,6.70
2017-09-09T14:47:37.398Z,6.93
2017-09-09T14:50:03.700Z,6.15
2017-09-09T14:52:33.093Z,6.57
2017-09-09T14:54:59.436Z,6.65
2017-09-09T14:57:25.773Z,6.20
2017-09-09T14:59:52.100Z,6.00
2017-09-09T15:02:18.495Z,5.37
2017-09-09T15:04:44.814Z,5.65
2017-09-09T15:07:11.489Z,5.90
2017-09-09T15:09:37.954Z,5.87
2017-09-09T15:12:04.314Z,7.62
2017-09-09T15:14:31.004Z,6.93
2017-09-09T15:16:57.332Z,11.18
2017-09-09T15:19:23.711Z,5.40
2017-09-09T15:21:50.040Z,7.32
2017-09-09T15:24:16.709Z,5.68
2017-09-09T15:26:43.070Z,5.95
2017-09-09T15:29:10.184Z,6.68
2017-09-09T15:31:36.518Z,6.12
2017-09-09T15:34:02.822Z,7.68
2017-09-09T15:36:29.133Z,6.05
2017-09-09T15:38:55.614Z,5.05
2017-09-09T15:41:22.062Z,6.95
2017-09-09T15:43:48.429Z,5.37
2017-09-09T15:46:14.793Z,5.28
2017-09-09T15:48:42.470Z,5.53
2017-09-09T15:51:08.762Z,5.50
2017-09-09T15:53:35.070Z,6.12
2017-09-09T15:56:01.386Z,5.43
2017-09-09T15:58:27.699Z,7.30
2017-09-09T16:00:54.328Z,8.37
2017-09-09T16:03:20.670Z,8.38
2017-09-09T16:05:47.018Z,11.25
2017-09-09T16:08:13.339Z,10.95
2017-09-09T16:10:39.684Z,8.18
2017-09-09T16:13:05.986Z,13.97
2017-09-09T16:15:33.255Z,9.15
2017-09-09T16:17:59.845Z,9.80
2017-09-09T16:20:26.210Z,8.17
2017-09-09T16:22:53.009Z,7.20
2017-09-09T16:25:19.331Z,7.15
2017-09-09T16:27:45.645Z,7.63
2017-09-09T16:30:11.976Z,7.93
2017-09-09T16:32:39.291Z,7.35
2017-09-09T16:35:06.642Z,8.05
2017-09-09T16:37:33.536Z,7.57
2017-09-09T16:40:00.708Z,7.77
2017-09-09T16:42:27.072Z,7.28
2017-09-09T16:44:53.953Z,7.12
2017-09-09T16:47:20.276Z,8.20
2017-09-09T16:49:46.592Z,7.60
2017-09-09T16:52:12.966Z,7.80
2017-09-09T16:54:39.268Z,7.35
2017-09-09T16:57:05.554Z,7.37
2017-09-09T16:59:31.864Z,8.27
2017-09-09T17:01:58.560Z,7.07
2017-09-09T17:04:24.863Z,7.55
2017-09-09T17:06:51.148Z,7.20
2017-09-09T17:09:17.494Z,7.07
2017-09-09T17:11:43.774Z,9.50
2017-09-09T17:14:10.073Z,7.22
2017-09-09T17:16:36.360Z,9.13
2017-09-09T17:19:02.631Z,9.30
2017-09-09T17:21:28.987Z,8.65
2017-09-09T17:23:55.281Z,8.57
2017-09-09T17:26:22.180Z,8.38
2017-09-09T17:28:48.502Z,8.13
2017-09-09T17:31:14.993Z,8.55
2017-09-09T17:33:41.330Z,9.52
2017-09-09T17:36:08.456Z,8.05
2017-09-09T17:38:34.768Z,6.50
2017-09-09T17:41:01.058Z,6.32
2017-09-09T17:43:27.383Z,6.47
2017-09-09T17:45:53.655Z,6.40
2017-09-09T17:48:19.981Z,5.95
2017-09-09T17:50:46.425Z,5.65
2017-09-09T17:53:12.766Z,5.80
2017-09-09T17:55:39.414Z,6.47
2017-09-09T17:58:05.725Z,6.37
2017-09-09T18:00:32.003Z,7.10
2017-09-09T18:02:58.285Z,8.00
2017-09-09T18:05:24.968Z,5.53
2017-09-09T18:07:51.321Z,5.50
2017-09-09T18:10:17.692Z,4.80
2017-09-09T18:12:44.030Z,6.03
2017-09-09T18:15:10.741Z,7.22
2017-09-09T18:17:37.058Z,5.15
2017-09-09T18:20:03.401Z,5.57
2017-09-09T18:22:29.753Z,4.62
2017-09-09T18:24:57.243Z,6.15
2017-09-09T18:27:23.515Z,5.65
2017-09-09T18:29:49.892Z,4.50
2017-09-09T18:32:16.204Z,5.43
2017-09-09T18:34:42.513Z,4.45
2017-09-09T18:37:08.833Z,4.80
2017-09-09T18:39:35.114Z,5.80
2017-09-09T18:42:01.428Z,6.03
2017-09-09T18:44:28.065Z,6.25
2017-09-09T18:46:54.729Z,5.45
2017-09-09T18:49:21.505Z,4.35
2017-09-09T18:51:47.845Z,4.32
2017-09-09T18:54:14.781Z,4.68
2017-09-09T18:56:41.040Z,4.35
2017-09-09T18:59:07.432Z,4.03
2017-09-09T19:01:33.741Z,3.80
2017-09-09T19:04:00.860Z,3.33
2017-09-09T19:06:27.174Z,3.35
2017-09-09T19:08:53.496Z,3.53
2017-09-09T19:11:19.852Z,3.65
2017-09-09T19:13:46.860Z,4.22
2017-09-09T19:16:13.154Z,3.70
2017-09-09T19:18:40.349Z,4.45
2017-09-09T19:21:06.695Z,3.70
2017-09-09T19:23:33.641Z,3.40
2017-09-09T19:26:00.342Z,3.55
2017-09-09T19:28:26.618Z,3.90
2017-09-09T19:30:52.934Z,3.35
2017-09-09T19:33:19.632Z,3.72
2017-09-09T19:35:47.178Z,4.07
2017-09-09T19:38:14.269Z,3.47
2017-09-09T19:40:40.543Z,4.00
2017-09-09T19:43:06.873Z,3.62
2017-09-09T19:45:33.170Z,3.90
2017-09-09T19:48:00.399Z,3.40
2017-09-09T19:50:26.693Z,3.65
2017-09-09T19:52:53.044Z,3.67
2017-09-09T19:55:19.371Z,2.90
2017-09-09T19:57:45.701Z,2.70
2017-09-09T20:00:12.957Z,3.22
2017-09-09T20:02:40.281Z,3.20
2017-09-09T20:05:06.583Z,2.80
2017-09-09T20:07:32.924Z,2.92
2017-09-09T20:09:59.608Z,3.15
2017-09-09T20:12:25.980Z,2.95
2017-09-09T20:14:52.273Z,3.58
2017-09-09T20:17:18.582Z,2.60
2017-09-09T20:19:45.486Z,3.58
2017-09-09T20:22:12.129Z,3.25
2017-09-09T20:24:38.474Z,3.00
2017-09-09T20:27:04.879Z,3.70
2017-09-09T20:29:31.175Z,3.42
2017-09-09T20:31:57.496Z,3.50
2017-09-09T20:34:23.774Z,3.75
2017-09-09T20:36:50.095Z,3.47
2017-09-09T20:39:16.773Z,3.50
2017-09-09T20:41:43.058Z,3.30
2017-09-09T20:44:09.375Z,2.85
2017-09-09T20:46:35.685Z,3.03
2017-09-09T20:49:02.798Z,3.30
2017-09-09T20:51:29.413Z,4.05
2017-09-09T20:53:55.718Z,3.95
2017-09-09T20:56:21.990Z,5.68
2017-09-09T20:58:49.336Z,5.10
2017-09-09T21:01:15.679Z,4.82
2017-09-09T21:03:41.983Z,4.70
2017-09-09T21:06:08.269Z,6.03
2017-09-09T21:08:34.574Z,9.60
2017-09-09T21:11:01.334Z,8.65
2017-09-09T21:13:27.672Z,15.23
2017-09-09T21:15:54.012Z,17.17
2017-09-09T21:18:21.734Z,6.90
2017-09-09T21:20:48.017Z,5.30
2017-09-09T21:23:14.296Z,4.45
2017-09-09T21:25:40.581Z,4.40
2017-09-09T21:28:06.928Z,5.30
2017-09-09T21:30:35.186Z,4.43
2017-09-09T21:33:01.460Z,5.68
2017-09-09T21:35:27.768Z,5.35
2017-09-09T21:37:54.116Z,4.32
2017-09-09T21:40:20.439Z,4.62
2017-09-09T21:42:46.730Z,4.80
2017-09-09T21:45:13.021Z,7.18
2017-09-09T21:47:41.606Z,5.80
2017-09-09T21:50:07.881Z,6.18
2017-09-09T21:52:34.184Z,5.80
2017-09-09T21:55:00.456Z,5.80
2017-09-09T21:57:26.874Z,4.55
2017-09-09T21:59:53.189Z,3.78
2017-09-09T22:02:19.475Z,3.70
2017-09-09T22:04:45.757Z,3.62
2017-09-09T22:07:12.087Z,4.03
2017-09-09T22:09:38.391Z,3.40
2017-09-09T22:12:04.677Z,5.25
2017-09-09T22:14:31.352Z,3.47
2017-09-09T22:16:57.621Z,3.05
2017-09-09T22:19:23.897Z,2.50
2017-09-09T22:21:51.112Z,3.67
2017-09-09T22:24:17.393Z,4.62
2017-09-09T22:26:43.686Z,2.67
2017-09-09T22:29:10.324Z,3.25
2017-09-09T22:31:36.985Z,2.53
2017-09-09T22:34:04.265Z,2.75
2017-09-09T22:36:30.568Z,3.20
2017-09-09T22:38:56.839Z,2.90
2017-09-09T22:41:23.548Z,3.62
2017-09-09T22:43:49.837Z,3.95
2017-09-09T22:46:16.133Z,3.70
2017-09-09T22:48:42.401Z,3.25
2017-09-09T22:51:08.721Z,3.47
2017-09-09T22:53:35.021Z,3.25
2017-09-09T22:56:01.295Z,3.90
2017-09-09T22:58:27.573Z,3.15
2017-09-09T23:00:53.865Z,3.33
2017-09-09T23:03:20.156Z,4.22
2017-09-09T23:05:46.815Z,3.55
2017-09-09T23:08:13.401Z,4.78
2017-09-09T23:10:39.665Z,4.20
2017-09-09T23:13:05.932Z,3.08
2017-09-09T23:15:32.233Z,3.67
2017-09-09T23:17:58.538Z,3.30
2017-09-09T23:20:24.841Z,3.92
2017-09-09T23:22:51.113Z,3.12
2017-09-09T23:25:17.888Z,3.40
2017-09-09T23:27:44.156Z,4.18
2017-09-09T23:30:10.425Z,3.17
2017-09-09T23:32:36.712Z,4.18
2017-09-09T23:35:03.465Z,5.07
2017-09-09T23:37:29.920Z,4.57
2017-09-09T23:39:56.595Z,4.62
2017-09-09T23:42:22.897Z,4.57
2017-09-09T23:44:49.212Z,4.57
2017-09-09T23:47:15.857Z,4.80
2017-09-09T23:49:43.432Z,5.78
2017-09-09T23:52:09.978Z,5.45
2017-09-09T23:54:36.265Z,5.32
2017-09-09T23:57:02.533Z,5.25
2017-09-09T23:59:28.808Z,5.55
